Bookmark and Share
Track history (hours):
 

Celandine

Last reported at 2014-Apr-17 00:34 UTC. Time now 2014-Apr-17 00:49 UTC.
Position N 51°27' E 000°24'.

Length 162 m; draft 5.8 m.

Type: Ship (hazmat cat A). MMSI: 205476000.

NotesDate/timePositionNaut miles runAvg speedWind from/ knotsBaromVisibWave heightAir tempDewpointWater temp
2014-Apr-17 00:34N 51°27' E 000°24'6 5.6
2014-Apr-16 23:33N 51°28' E 000°16'0 0.4
2014-Apr-16 22:32N 51°28' E 000°15'0 0.0
2014-Apr-16 21:32N 51°28' E 000°15'0 0.0
2014-Apr-16 20:32N 51°28' E 000°15'0 0.0
2014-Apr-16 19:32N 51°28' E 000°15'0 0.0
2014-Apr-16 18:32N 51°28' E 000°15'0 0.0
2014-Apr-16 17:32N 51°28' E 000°15'1 0.7
2014-Apr-16 16:33N 51°28' E 000°16'8 8.0
2014-Apr-16 15:33N 51°30' E 000°28'1312.9
2014-Apr-16 14:34N 51°29' E 000°49'1515.3
2014-Apr-16 13:34N 51°29' E 001°14'1616.0
2014-Apr-16 12:34N 51°31' E 001°39'1414.1
2014-Apr-16 11:33N 51°35' E 002°01'1110.6
2014-Apr-16 10:33N 51°29' E 002°15'1414.0
2014-Apr-16 09:33N 51°29' E 002°37'1716.9
2014-Apr-16 08:33N 51°25' E 003°03'7 7.2
2014-Apr-16 07:33N 51°21' E 003°13'0 0.0
2014-Apr-16 06:31N 51°21' E 003°13'0 0.0
2014-Apr-16 05:34N 51°21' E 003°13'0 0.0
2014-Apr-16 04:34N 51°21' E 003°13'0 0.0
2014-Apr-16 03:34N 51°21' E 003°13'0 0.0
2014-Apr-16 02:25N 51°21' E 003°13'0 0.0
2014-Apr-16 01:34N 51°21' E 003°13'0 0.0
2014-Apr-16 00:34N 51°21' E 003°13'0 0.0
2014-Apr-15 23:34N 51°21' E 003°13'0 0.0
2014-Apr-15 22:30N 51°21' E 003°13'0 0.0
2014-Apr-15 21:34N 51°21' E 003°13'0 0.0
2014-Apr-15 20:34N 51°21' E 003°13'7 6.7
2014-Apr-15 19:33N 51°24' E 003°04'1515.1
2014-Apr-15 18:33N 51°28' E 002°40'1615.3
2014-Apr-15 17:33N 51°31' E 002°16'1515.7
2014-Apr-15 16:33N 51°33' E 001°51'1717.1
2014-Apr-15 15:33N 51°29' E 001°25'1818.4
2014-Apr-15 14:33N 51°29' E 000°55'16 8.0
2014-Apr-15 12:34N 51°30' E 000°29'7 7.4
2014-Apr-15 11:34N 51°28' E 000°18'2 1.7
2014-Apr-15 10:31N 51°28' E 000°15'0 0.0
2014-Apr-15 09:31N 51°28' E 000°15'0 0.0
2014-Apr-15 08:31N 51°28' E 000°15'0 0.0
2014-Apr-15 06:31N 51°28' E 000°15'0 0.0
2014-Apr-15 05:31N 51°28' E 000°15'2 0.8
2014-Apr-15 03:34N 51°28' E 000°18'9 8.9
2014-Apr-15 02:34N 51°30' E 000°32'1312.7
2014-Apr-15 01:34N 51°30' E 000°52'1413.9
2014-Apr-15 00:34N 51°29' E 001°14'1414.4
2014-Apr-14 23:34N 51°30' E 001°37'1514.9
2014-Apr-14 22:34N 51°30' E 002°01'1615.5
2014-Apr-14 21:33N 51°29' E 002°26'1515.4
2014-Apr-14 20:34N 51°27' E 002°51'1514.8
2014-Apr-14 19:34N 51°21' E 003°12'0 0.4
2014-Apr-14 18:31N 51°21' E 003°13'0 0.0
2014-Apr-14 15:31N 51°21' E 003°13'0 0.0
2014-Apr-14 14:31N 51°21' E 003°13'0 0.0
2014-Apr-14 13:31N 51°21' E 003°13'0 0.0
2014-Apr-14 11:31N 51°21' E 003°13'0 0.0
2014-Apr-14 10:31N 51°21' E 003°13'0 0.0
2014-Apr-14 09:33N 51°21' E 003°13'1010.0
2014-Apr-14 08:33N 51°27' E 003°01'1716.5
2014-Apr-14 07:33N 51°43' E 003°09'15016.6
2014-Apr-13 22:32N 53°49' E 005°23'6114.2
2014-Apr-13 18:15N 54°30' E 006°40'1014.8
2014-Apr-13 17:33N 54°37' E 006°52'1515.0
2014-Apr-13 16:34N 54°49' E 007°08'1515.2
2014-Apr-13 15:34N 54°60' E 007°26'1515.3
2014-Apr-13 14:34N 55°10' E 007°46'1515.2
2014-Apr-13 13:34N 55°21' E 008°05'1313.2
2014-Apr-13 12:33N 55°28' E 008°25'1 1.0
2014-Apr-13 11:29N 55°27' E 008°27'0 0.0
2014-Apr-13 10:32N 55°27' E 008°27'0 0.0
2014-Apr-13 09:32N 55°27' E 008°27'0 0.0
2014-Apr-13 08:21N 55°27' E 008°27'0 0.0
2014-Apr-13 07:32N 55°27' E 008°27'0 0.4
2014-Apr-13 06:33N 55°27' E 008°26'2 2.0
2014-Apr-13 05:33N 55°29' E 008°24'1414.0
2014-Apr-13 04:33N 55°20' E 008°05'1413.9
2014-Apr-13 03:33N 55°11' E 007°46'1010.0
2014-Apr-13 02:33N 55°05' E 007°33'1413.8
2014-Apr-13 01:33N 54°53' E 007°19'1614.9
2014-Apr-13 00:30N 54°42' E 006°60'1414.9
2014-Apr-12 23:33N 54°32' E 006°43'1515.2
2014-Apr-12 22:33N 54°21' E 006°25'3115.3
2014-Apr-12 20:33N 53°58' E 005°51'1717.0
2014-Apr-12 19:32N 53°49' E 005°26'1717.4
2014-Apr-12 18:33N 53°40' E 005°01'1616.0
2014-Apr-12 17:33N 53°28' E 004°44'2317.4
2014-Apr-12 16:13N 53°07' E 004°26'1218.1
2014-Apr-12 15:33N 52°56' E 004°17'1817.8
2014-Apr-12 14:33N 52°41' E 004°01'1817.4
2014-Apr-12 13:32N 52°28' E 003°41'1817.7
2014-Apr-12 12:32N 52°12' E 003°30'1818.2
2014-Apr-12 11:33N 51°55' E 003°23'1716.6
2014-Apr-12 10:33N 51°41' E 003°09'1615.8
2014-Apr-12 09:33N 51°26' E 003°00'9 9.5
2014-Apr-12 08:33N 51°21' E 003°13'0 0.0
2014-Apr-12 07:33N 51°21' E 003°13'0 0.0
2014-Apr-12 06:33N 51°21' E 003°13'0 0.0
2014-Apr-12 05:33N 51°21' E 003°13'0 0.0
2014-Apr-12 04:30N 51°21' E 003°13'0 0.0
2014-Apr-12 03:33N 51°21' E 003°13'0 0.0
2014-Apr-12 02:30N 51°21' E 003°13'0 0.4
2014-Apr-12 01:33N 51°21' E 003°13'1414.2
2014-Apr-12 00:33N 51°26' E 002°52'1717.0
2014-Apr-11 23:33N 51°31' E 002°25'1717.0
2014-Apr-11 22:33N 51°33' E 001°58'1716.8
2014-Apr-11 21:34N 51°29' E 001°32'1515.0
2014-Apr-11 20:34N 51°29' E 001°08'1514.6
2014-Apr-11 19:34N 51°30' E 000°44'1312.9
2014-Apr-11 18:33N 51°27' E 000°24'6 5.9
2014-Apr-11 17:33N 51°28' E 000°15'0 0.0
2014-Apr-11 16:31N 51°28' E 000°15'0 0.0
2014-Apr-11 15:31N 51°28' E 000°15'0 0.0
2014-Apr-11 14:31N 51°28' E 000°15'0 0.0
2014-Apr-11 13:31N 51°28' E 000°15'0 0.0
2014-Apr-11 12:31N 51°28' E 000°15'0 0.0
2014-Apr-11 11:31N 51°28' E 000°15'2 1.8
2014-Apr-11 10:33N 51°28' E 000°18'7 7.0
2014-Apr-11 09:33N 51°30' E 000°28'1615.6
2014-Apr-11 08:33N 51°30' E 000°54'1717.3
2014-Apr-11 07:33N 51°29' E 001°21'1716.7
2014-Apr-11 06:32N 51°34' E 001°48'1313.3
2014-Apr-11 05:31N 51°40' E 002°07'9 9.6
2014-Apr-11 04:33N 51°37' E 002°21'1413.9
2014-Apr-11 03:33N 51°33' E 002°42'1615.8
2014-Apr-11 02:33N 51°25' E 003°03'7 7.2
2014-Apr-11 01:33N 51°21' E 003°13'0 0.0
2014-Apr-11 00:30N 51°21' E 003°13'0 0.0
2014-Apr-10 23:33N 51°21' E 003°13'0 0.0
2014-Apr-10 22:33N 51°21' E 003°13'0 0.0
2014-Apr-10 21:33N 51°21' E 003°13'0 0.0
2014-Apr-10 20:30N 51°21' E 003°13'0 0.0
2014-Apr-10 19:33N 51°21' E 003°13'3 2.5
2014-Apr-10 18:33N 51°23' E 003°10'1616.0
2014-Apr-10 17:34N 51°27' E 002°46'1615.5
2014-Apr-10 16:33N 51°30' E 002°21'1616.0
2014-Apr-10 15:34N 51°33' E 001°56'1716.6
2014-Apr-10 14:34N 51°29' E 001°30'1717.1
2014-Apr-10 13:34N 51°30' E 001°03'1817.8
2014-Apr-10 12:34N 51°30' E 000°34'1110.8
2014-Apr-10 11:34N 51°28' E 000°17'2 1.5
2014-Apr-10 10:33N 51°28' E 000°15'0 0.0
2014-Apr-10 09:33N 51°28' E 000°15'0 0.0
2014-Apr-10 08:33N 51°28' E 000°15'0 0.0
2014-Apr-10 07:33N 51°28' E 000°15'0 0.0
2014-Apr-10 06:33N 51°28' E 000°15'0 0.0
2014-Apr-10 05:33N 51°28' E 000°15'1 1.0
2014-Apr-10 04:34N 51°28' E 000°16'8 8.3
2014-Apr-10 03:33N 51°30' E 000°29'1414.5
2014-Apr-10 02:33N 51°29' E 000°52'1413.8
2014-Apr-10 01:34N 51°29' E 001°14'1414.3
2014-Apr-10 00:34N 51°31' E 001°37'1414.2
2014-Apr-09 23:34N 51°37' E 001°57'1413.5
2014-Apr-09 22:33N 51°36' E 002°19'1514.7
2014-Apr-09 21:33N 51°34' E 002°43'1515.1
2014-Apr-09 20:33N 51°25' E 003°02'8 8.0
2014-Apr-09 19:33N 51°21' E 003°13'0 0.0
2014-Apr-09 18:33N 51°21' E 003°13'0 0.0
2014-Apr-09 17:33N 51°21' E 003°13'0 0.0
2014-Apr-09 16:33N 51°21' E 003°13'0 0.0
2014-Apr-09 15:33N 51°21' E 003°13'0 0.0
2014-Apr-09 14:33N 51°21' E 003°13'0 0.0
2014-Apr-09 13:27N 51°21' E 003°13'6 6.3
2014-Apr-09 12:33N 51°24' E 003°06'1716.6
2014-Apr-09 11:33N 51°29' E 002°40'1716.6
2014-Apr-09 10:33N 51°33' E 002°15'1716.6
2014-Apr-09 09:33N 51°32' E 001°48'1717.0
2014-Apr-09 08:33N 51°29' E 001°21'1716.7
2014-Apr-09 07:33N 51°29' E 000°55'1615.7
2014-Apr-09 06:34N 51°30' E 000°29'9 8.7
2014-Apr-09 05:33N 51°28' E 000°16'1 0.8
2014-Apr-09 04:33N 51°28' E 000°15'0 0.0
2014-Apr-09 03:33N 51°28' E 000°15'0 0.0
2014-Apr-09 02:33N 51°28' E 000°15'0 0.0
2014-Apr-09 01:33N 51°28' E 000°15'0 0.0
2014-Apr-09 00:33N 51°28' E 000°15'0 0.0
2014-Apr-08 23:33N 51°28' E 000°15'2 1.7
2014-Apr-08 22:34N 51°28' E 000°17'8 7.8
2014-Apr-08 21:34N 51°30' E 000°29'1312.9
2014-Apr-08 20:33N 51°30' E 000°50'1514.6
2014-Apr-08 19:34N 51°29' E 001°14'1615.6
2014-Apr-08 18:34N 51°29' E 001°39'1515.4
2014-Apr-08 17:33N 51°24' E 002°02'1514.6
2014-Apr-08 16:33N 51°22' E 002°26'1615.6
2014-Apr-08 15:34N 51°24' E 002°50'1414.3
2014-Apr-08 14:33N 51°21' E 003°13'0 0.2
2014-Apr-08 13:32N 51°21' E 003°13'0 0.0
2014-Apr-08 12:32N 51°21' E 003°13'0 0.0
2014-Apr-08 11:32N 51°21' E 003°13'0 0.0
2014-Apr-08 10:32N 51°21' E 003°13'0 0.0
2014-Apr-08 09:32N 51°21' E 003°13'0 0.0
2014-Apr-08 08:32N 51°21' E 003°13'0 0.0
2014-Apr-08 07:33N 51°21' E 003°13'1010.1
2014-Apr-08 06:33N 51°25' E 002°59'1716.8
2014-Apr-08 05:33N 51°29' E 002°32'1515.2
2014-Apr-08 04:34N 51°33' E 002°09'1515.5
2014-Apr-08 03:34N 51°31' E 001°44'1615.6
2014-Apr-08 02:34N 51°29' E 001°19'1515.4
2014-Apr-08 01:33N 51°29' E 000°54'1615.8
2014-Apr-08 00:34N 51°30' E 000°29'9 8.7
2014-Apr-07 23:33N 51°28' E 000°16'1 0.5
2014-Apr-07 22:31N 51°28' E 000°15'0 0.0
2014-Apr-07 21:31N 51°28' E 000°15'0 0.0
2014-Apr-07 20:31N 51°28' E 000°15'0 0.0
2014-Apr-07 19:31N 51°28' E 000°15'0 0.0
2014-Apr-07 17:28N 51°28' E 000°15'1 0.6
2014-Apr-07 16:33N 51°28' E 000°16'7 7.1
2014-Apr-07 15:33N 51°28' E 000°27'1515.4
2014-Apr-07 14:34N 51°29' E 000°52'1615.5
2014-Apr-07 13:34N 51°29' E 001°17'1616.2
2014-Apr-07 12:34N 51°32' E 001°42'1616.0
2014-Apr-07 11:33N 51°38' E 002°06'1616.6
2014-Apr-07 10:33N 51°35' E 002°32'1616.2
2014-Apr-07 09:33N 51°28' E 002°56'1312.9
2014-Apr-07 08:34N 51°21' E 003°13'0 0.0
2014-Apr-07 07:31N 51°21' E 003°13'0 0.0
2014-Apr-07 06:31N 51°21' E 003°13'0 0.0
2014-Apr-07 05:28N 51°21' E 003°13'0 0.0
2014-Apr-07 04:31N 51°21' E 003°13'0 0.0
2014-Apr-07 03:31N 51°21' E 003°13'0 0.0
2014-Apr-07 02:25N 51°21' E 003°13'0 0.0
2014-Apr-07 01:31N 51°21' E 003°13'  

Dump ship's entire track history

sailing weather and tide predictions

Celandine — ONDN — position and weather